Terminal Aerodrome Forecast
Issued by NWS

Current Version | Previous Version | Text Only | Print | Product List | Glossary On
Versions: 1 2 3 4 5 6 7 8 9 10 11 12 13 14 15 16 17 18 19
000
FTUS46 KMTR 250500
TAFSNS
TAF
KSNS 250535Z 2506/2606 31010G16KT P6SM FEW030
     FM251900 29016KT P6SM FEW030
     FM260300 29012KT P6SM FEW030=

USA.gov is the U.S. government's official web portal to all federal, state and local government web resources and services.